createdAt,value
2019-05-02T00:00:52.203Z,1005.8
2019-05-02T00:02:06.120Z,1005.8
2019-05-02T00:03:20.577Z,1005.8
2019-05-02T00:04:34.564Z,1005.8
2019-05-02T00:05:48.798Z,1005.8
2019-05-02T00:07:03.056Z,1005.8
2019-05-02T00:08:17.495Z,1005.7
2019-05-02T00:09:31.574Z,1005.8
2019-05-02T00:10:45.687Z,1005.8
2019-05-02T00:11:59.921Z,1005.8
2019-05-02T00:13:14.123Z,1005.8
2019-05-02T00:14:28.444Z,1005.8
2019-05-02T00:15:42.551Z,1005.7
2019-05-02T00:16:56.758Z,1005.7
2019-05-02T00:18:10.974Z,1005.7
2019-05-02T00:20:39.537Z,1005.7
2019-05-02T00:21:53.893Z,1005.8
2019-05-02T00:23:07.937Z,1005.7
2019-05-02T00:24:22.148Z,1005.7
2019-05-02T00:25:36.639Z,1005.7
2019-05-02T00:26:50.577Z,1005.6
2019-05-02T00:28:04.902Z,1005.7
2019-05-02T00:29:18.917Z,1005.7
2019-05-02T00:30:33.097Z,1005.7
2019-05-02T00:31:47.334Z,1005.6
2019-05-02T00:33:01.525Z,1005.6
2019-05-02T00:34:15.746Z,1005.6
2019-05-02T00:36:44.168Z,1005.6
2019-05-02T00:37:58.402Z,1005.7
2019-05-02T00:39:12.584Z,1005.6
2019-05-02T00:41:40.998Z,1005.6
2019-05-02T00:44:09.469Z,1005.6
2019-05-02T00:45:23.666Z,1005.6
2019-05-02T00:46:37.911Z,1005.7
2019-05-02T00:47:52.173Z,1005.6
2019-05-02T00:49:06.411Z,1005.6
2019-05-02T00:50:20.530Z,1005.6
2019-05-02T00:51:34.783Z,1005.6
2019-05-02T00:52:48.985Z,1005.6
2019-05-02T00:54:03.200Z,1005.6
2019-05-02T00:55:17.378Z,1005.5
2019-05-02T00:56:31.634Z,1005.5
2019-05-02T00:57:46.164Z,1005.5
2019-05-02T00:59:00.029Z,1005.5
2019-05-02T01:01:28.481Z,1005.4
2019-05-02T01:02:42.754Z,1005.4
2019-05-02T01:03:56.876Z,1005.4
2019-05-02T01:05:11.137Z,1005.4
2019-05-02T01:06:25.279Z,1005.4
2019-05-02T01:07:39.534Z,1005.4
2019-05-02T01:08:53.705Z,1005.4
2019-05-02T01:10:07.951Z,1005.4
2019-05-02T01:11:22.317Z,1005.4
2019-05-02T01:12:36.352Z,1005.3
2019-05-02T01:13:50.565Z,1005.3
2019-05-02T01:15:04.765Z,1005.4
2019-05-02T01:16:19.046Z,1005.3
2019-05-02T01:18:47.370Z,1005.4
2019-05-02T01:20:01.623Z,1005.3
2019-05-02T01:21:15.918Z,1005.4
2019-05-02T01:22:30.015Z,1005.4
2019-05-02T01:23:44.198Z,1005.3
2019-05-02T01:26:12.743Z,1005.3
2019-05-02T01:27:26.921Z,1005.3
2019-05-02T01:28:41.081Z,1005.2
2019-05-02T01:29:55.552Z,1005.3
2019-05-02T01:31:14.336Z,1005.2
2019-05-02T01:32:23.825Z,1005.2
2019-05-02T01:33:37.965Z,1005.3
2019-05-02T01:34:52.100Z,1005.2
2019-05-02T01:36:06.361Z,1005.2
2019-05-02T01:37:20.522Z,1005.3
2019-05-02T01:38:34.732Z,1005.2
2019-05-02T01:39:48.928Z,1005.2
2019-05-02T01:41:03.122Z,1005.2
2019-05-02T01:42:17.471Z,1005.3
2019-05-02T01:43:31.602Z,1005.2
2019-05-02T01:44:45.889Z,1005.2
2019-05-02T01:46:00.120Z,1005.2
2019-05-02T01:47:14.205Z,1005.2
2019-05-02T01:48:28.364Z,1005.2
2019-05-02T01:49:42.585Z,1005.2
2019-05-02T01:50:56.798Z,1005.2
2019-05-02T01:52:11.010Z,1005.2
2019-05-02T01:53:25.227Z,1005.2
2019-05-02T01:54:39.668Z,1005.2
2019-05-02T01:55:54.713Z,1005.2
2019-05-02T01:57:07.866Z,1005.2
2019-05-02T01:58:22.042Z,1005.1
2019-05-02T01:59:36.473Z,1005.1
2019-05-02T02:00:50.621Z,1005.1
2019-05-02T02:02:04.766Z,1005.2
2019-05-02T02:04:33.137Z,1005.1
2019-05-02T02:05:47.293Z,1005.1
2019-05-02T02:07:01.573Z,1005.1
2019-05-02T02:08:15.770Z,1005.1
2019-05-02T02:09:29.947Z,1005
2019-05-02T02:10:44.161Z,1005
2019-05-02T02:11:58.317Z,1005
2019-05-02T02:13:12.604Z,1005
2019-05-02T02:14:26.733Z,1005
2019-05-02T02:15:40.909Z,1005
2019-05-02T02:16:55.126Z,1005
2019-05-02T02:18:09.372Z,1005
2019-05-02T02:19:23.753Z,1004.9
2019-05-02T02:20:37.814Z,1004.9
2019-05-02T02:23:06.214Z,1004.9
2019-05-02T02:24:21.714Z,1004.9
2019-05-02T02:25:34.961Z,1004.8
2019-05-02T02:26:48.828Z,1004.9
2019-05-02T02:28:02.925Z,1004.9
2019-05-02T02:29:17.301Z,1004.9
2019-05-02T02:30:31.357Z,1004.8
2019-05-02T02:34:14.015Z,1004.9
2019-05-02T02:35:28.278Z,1004.8
2019-05-02T02:36:42.331Z,1004.8
2019-05-02T02:37:56.684Z,1004.9
2019-05-02T02:39:10.849Z,1004.8
2019-05-02T02:40:25.000Z,1004.8
2019-05-02T02:41:39.211Z,1004.8
2019-05-02T02:42:53.394Z,1004.8
2019-05-02T02:44:07.882Z,1004.8
2019-05-02T02:45:21.843Z,1004.8
2019-05-02T02:46:36.125Z,1004.8
2019-05-02T02:47:50.271Z,1004.8
2019-05-02T02:49:04.500Z,1004.8
2019-05-02T02:50:18.770Z,1004.8
2019-05-02T02:51:32.855Z,1004.7
2019-05-02T02:52:47.042Z,1004.8
2019-05-02T02:54:01.238Z,1004.8
2019-05-02T02:55:15.429Z,1004.8
2019-05-02T02:56:29.764Z,1004.8
2019-05-02T02:57:43.932Z,1004.7
2019-05-02T02:58:58.119Z,1004.8
2019-05-02T03:00:12.232Z,1004.8
2019-05-02T03:01:26.563Z,1004.7
2019-05-02T03:02:40.986Z,1004.7
2019-05-02T03:05:09.053Z,1004.7
2019-05-02T03:06:23.319Z,1004.7
2019-05-02T03:07:37.597Z,1004.6
2019-05-02T03:10:06.070Z,1004.7
2019-05-02T03:11:20.074Z,1004.7
2019-05-02T03:12:34.668Z,1004.7
2019-05-02T03:13:48.632Z,1004.7
2019-05-02T03:15:02.655Z,1004.6
2019-05-02T03:16:16.893Z,1004.7
2019-05-02T03:17:31.155Z,1004.7
2019-05-02T03:18:45.388Z,1004.6
2019-05-02T03:19:59.445Z,1004.6
2019-05-02T03:22:27.835Z,1004.7
2019-05-02T03:23:42.131Z,1004.6
2019-05-02T03:24:56.324Z,1004.6
2019-05-02T03:26:10.762Z,1004.7
2019-05-02T03:27:24.622Z,1004.6
2019-05-02T03:28:39.094Z,1004.6
2019-05-02T03:29:53.060Z,1004.6
2019-05-02T03:31:07.277Z,1004.6
2019-05-02T03:32:21.749Z,1004.6
2019-05-02T03:33:35.879Z,1004.6
2019-05-02T03:34:49.842Z,1004.6
2019-05-02T03:36:04.061Z,1004.6
2019-05-02T03:37:18.381Z,1004.5
2019-05-02T03:38:32.493Z,1004.6
2019-05-02T03:39:46.740Z,1004.5
2019-05-02T03:42:15.100Z,1004.6
2019-05-02T03:43:29.290Z,1004.5
2019-05-02T03:44:43.412Z,1004.6
2019-05-02T03:45:57.878Z,1004.6
2019-05-02T03:47:11.884Z,1004.5
2019-05-02T03:48:26.013Z,1004.5
2019-05-02T03:49:40.277Z,1004.5
2019-05-02T03:50:54.436Z,1004.5
2019-05-02T03:52:08.635Z,1004.5
2019-05-02T03:53:22.866Z,1004.5
2019-05-02T03:54:37.008Z,1004.5
2019-05-02T03:55:54.018Z,1004.4
2019-05-02T03:57:05.666Z,1004.5
2019-05-02T03:58:19.683Z,1004.5
2019-05-02T03:59:33.844Z,1004.5
2019-05-02T04:00:48.001Z,1004.5
2019-05-02T04:02:02.208Z,1004.5
2019-05-02T04:03:16.415Z,1004.5
2019-05-02T04:04:30.653Z,1004.4
2019-05-02T04:06:59.015Z,1004.5
2019-05-02T04:08:13.193Z,1004.4
2019-05-02T04:09:27.440Z,1004.4
2019-05-02T04:10:41.710Z,1004.4
2019-05-02T04:11:55.779Z,1004.4
2019-05-02T04:13:10.058Z,1004.4
2019-05-02T04:14:24.220Z,1004.3
2019-05-02T04:15:38.378Z,1004.3
2019-05-02T04:16:52.581Z,1004.3
2019-05-02T04:18:06.867Z,1004.4
2019-05-02T04:19:20.984Z,1004.4
2019-05-02T04:20:35.333Z,1004.4
2019-05-02T04:21:49.386Z,1004.4
2019-05-02T04:24:17.769Z,1004.4
2019-05-02T04:25:31.994Z,1004.4
2019-05-02T04:26:46.165Z,1004.3
2019-05-02T04:28:04.857Z,1004.4
2019-05-02T04:29:14.640Z,1004.4
2019-05-02T04:31:42.990Z,1004.4
2019-05-02T04:32:57.341Z,1004.3
2019-05-02T04:34:11.487Z,1004.3
2019-05-02T04:35:25.681Z,1004.3
2019-05-02T04:36:39.931Z,1004.4
2019-05-02T04:37:54.109Z,1004.3
2019-05-02T04:39:08.242Z,1004.3
2019-05-02T04:40:22.394Z,1004.3
2019-05-02T04:41:36.637Z,1004.3
2019-05-02T04:42:50.798Z,1004.2
2019-05-02T04:44:05.010Z,1004.3
2019-05-02T04:45:19.197Z,1004.3
2019-05-02T04:46:33.397Z,1004.3
2019-05-02T04:47:47.585Z,1004.2
2019-05-02T04:49:01.856Z,1004.2
2019-05-02T04:50:16.024Z,1004.2
2019-05-02T04:51:30.286Z,1004.2
2019-05-02T04:52:44.466Z,1004.2
2019-05-02T04:53:58.632Z,1004.2
2019-05-02T04:55:12.812Z,1004.2
2019-05-02T04:56:27.480Z,1004.2
2019-05-02T04:57:41.297Z,1004.2
2019-05-02T04:58:55.429Z,1004.2
2019-05-02T05:00:09.660Z,1004.2
2019-05-02T05:01:23.737Z,1004.2
2019-05-02T05:02:38.041Z,1004.1
2019-05-02T05:03:52.169Z,1004.2
2019-05-02T05:05:06.350Z,1004.1
2019-05-02T05:06:20.611Z,1004.2
2019-05-02T05:07:34.717Z,1004.1
2019-05-02T05:08:49.053Z,1004.1
2019-05-02T05:10:03.241Z,1004.1
2019-05-02T05:11:17.357Z,1004.1
2019-05-02T05:12:31.630Z,1004.1
2019-05-02T05:13:45.681Z,1004
2019-05-02T05:14:59.961Z,1004.1
2019-05-02T05:16:14.237Z,1004.1
2019-05-02T05:17:28.382Z,1004.1
2019-05-02T05:18:42.483Z,1004.1
2019-05-02T05:19:56.795Z,1004.1
2019-05-02T05:21:10.960Z,1004.1
2019-05-02T05:22:25.088Z,1004.2
2019-05-02T05:23:39.252Z,1004.1
2019-05-02T05:24:53.547Z,1004.2
2019-05-02T05:26:07.712Z,1004.2
2019-05-02T05:27:21.905Z,1004.2
2019-05-02T05:28:36.107Z,1004.2
2019-05-02T05:29:50.282Z,1004.2
2019-05-02T05:31:04.557Z,1004.2
2019-05-02T05:32:18.920Z,1004.2
2019-05-02T05:33:32.843Z,1004.2
2019-05-02T05:34:47.007Z,1004.2
2019-05-02T05:36:01.206Z,1004.2
2019-05-02T05:38:29.592Z,1004.3
2019-05-02T05:39:43.736Z,1004.2
2019-05-02T05:40:57.927Z,1004.2
2019-05-02T05:42:12.080Z,1004.1
2019-05-02T05:43:26.281Z,1004.2
2019-05-02T05:44:40.490Z,1004.2
2019-05-02T05:45:54.772Z,1004.2
2019-05-02T05:47:08.851Z,1004.1
2019-05-02T05:48:23.040Z,1004.1
2019-05-02T05:49:37.442Z,1004.1
2019-05-02T05:50:51.454Z,1004.1
2019-05-02T05:52:05.591Z,1004.1
2019-05-02T05:53:19.787Z,1004.1
2019-05-02T05:54:34.011Z,1004
2019-05-02T05:55:48.184Z,1004
2019-05-02T05:57:02.481Z,1004
2019-05-02T05:58:16.596Z,1004
2019-05-02T05:59:30.661Z,1004
2019-05-02T06:00:44.874Z,1004.1
2019-05-02T06:01:59.022Z,1004
2019-05-02T06:03:13.218Z,1004
2019-05-02T06:04:27.475Z,1004.1
2019-05-02T06:05:41.664Z,1004
2019-05-02T06:06:55.763Z,1004
2019-05-02T06:08:09.963Z,1004
2019-05-02T06:09:24.107Z,1004
2019-05-02T06:10:38.264Z,1003.9
2019-05-02T06:11:52.475Z,1004
2019-05-02T06:13:07.168Z,1004
2019-05-02T06:14:21.168Z,1004
2019-05-02T06:15:34.982Z,1004
2019-05-02T06:16:49.156Z,1004
2019-05-02T06:18:03.355Z,1004.1
2019-05-02T06:19:17.572Z,1004
2019-05-02T06:20:31.766Z,1004
2019-05-02T06:21:46.082Z,1004
2019-05-02T06:23:00.234Z,1004
2019-05-02T06:24:14.228Z,1004
2019-05-02T06:25:28.736Z,1004
2019-05-02T06:27:56.822Z,1003.9
2019-05-02T06:29:11.181Z,1004
2019-05-02T06:30:25.415Z,1003.9
2019-05-02T06:31:39.341Z,1004
2019-05-02T06:32:53.611Z,1003.9
2019-05-02T06:35:21.878Z,1004
2019-05-02T06:36:36.121Z,1004
2019-05-02T06:39:04.443Z,1003.9
2019-05-02T06:40:19.267Z,1003.9
2019-05-02T06:41:32.786Z,1003.8
2019-05-02T06:42:46.957Z,1003.9
2019-05-02T06:44:01.152Z,1003.9
2019-05-02T06:45:15.329Z,1003.8
2019-05-02T06:46:29.581Z,1003.8
2019-05-02T06:47:43.768Z,1003.8
2019-05-02T06:48:57.903Z,1003.7
2019-05-02T06:50:12.100Z,1003.7
2019-05-02T06:51:26.271Z,1003.7
2019-05-02T06:52:40.575Z,1003.7
2019-05-02T06:53:54.782Z,1003.7
2019-05-02T06:55:08.713Z,1003.6
2019-05-02T06:56:26.925Z,1003.7
2019-05-02T06:57:37.054Z,1003.7
2019-05-02T06:58:51.415Z,1003.6
2019-05-02T07:00:05.427Z,1003.6
2019-05-02T07:02:33.770Z,1003.6
2019-05-02T07:03:47.976Z,1003.6
2019-05-02T07:05:02.182Z,1003.5
2019-05-02T07:06:16.261Z,1003.6
2019-05-02T07:07:30.411Z,1003.6
2019-05-02T07:08:44.662Z,1003.5
2019-05-02T07:09:59.183Z,1003.5
2019-05-02T07:11:13.408Z,1003.5
2019-05-02T07:13:41.314Z,1003.5
2019-05-02T07:14:55.636Z,1003.5
2019-05-02T07:16:09.600Z,1003.5
2019-05-02T07:17:23.659Z,1003.5
2019-05-02T07:18:37.903Z,1003.5
2019-05-02T07:19:51.969Z,1003.5
2019-05-02T07:21:06.107Z,1003.5
2019-05-02T07:22:20.289Z,1003.5
2019-05-02T07:24:48.766Z,1003.4
2019-05-02T07:26:03.155Z,1003.4
2019-05-02T07:27:16.956Z,1003.4
2019-05-02T07:28:31.097Z,1003.4
2019-05-02T07:29:45.129Z,1003.4
2019-05-02T07:30:59.273Z,1003.4
2019-05-02T07:32:13.428Z,1003.4
2019-05-02T07:33:27.662Z,1003.4
2019-05-02T07:34:41.706Z,1003.5
2019-05-02T07:35:55.865Z,1003.4
2019-05-02T07:37:10.007Z,1003.4
2019-05-02T07:38:24.152Z,1003.5
2019-05-02T07:39:38.319Z,1003.3
2019-05-02T07:40:52.461Z,1003.3
2019-05-02T07:42:06.603Z,1003.4
2019-05-02T07:43:20.776Z,1003.4
2019-05-02T07:44:34.875Z,1003.4
2019-05-02T07:45:48.937Z,1003.3
2019-05-02T07:47:03.118Z,1003.3
2019-05-02T07:48:17.285Z,1003.5
2019-05-02T07:49:31.478Z,1003.4
2019-05-02T07:50:45.528Z,1003.6
2019-05-02T07:51:59.621Z,1003.7
2019-05-02T07:53:13.865Z,1003.6
2019-05-02T07:54:28.115Z,1003.5
2019-05-02T07:55:42.225Z,1003.5
2019-05-02T07:56:56.236Z,1003.4
2019-05-02T07:58:10.236Z,1003.5
2019-05-02T07:59:24.370Z,1003.5
2019-05-02T08:00:38.460Z,1003.5
2019-05-02T08:01:52.568Z,1003.5
2019-05-02T08:03:06.790Z,1003.6
2019-05-02T08:04:20.813Z,1003.6
2019-05-02T08:05:35.037Z,1003.5
2019-05-02T08:08:03.533Z,1003.5
2019-05-02T08:09:17.484Z,1003.4
2019-05-02T08:10:31.449Z,1003.4
2019-05-02T08:11:45.576Z,1003.5
2019-05-02T08:14:13.795Z,1003.5
2019-05-02T08:15:27.877Z,1003.5
2019-05-02T08:16:42.067Z,1003.5
2019-05-02T08:17:56.387Z,1003.5
2019-05-02T08:19:10.285Z,1003.5
2019-05-02T08:20:24.528Z,1003.4
2019-05-02T08:21:38.541Z,1003.4
2019-05-02T08:22:53.147Z,1003.4
2019-05-02T08:24:07.042Z,1003.4
2019-05-02T08:25:20.933Z,1003.4
2019-05-02T08:26:40.931Z,1003.5
2019-05-02T08:27:49.171Z,1003.5
2019-05-02T08:29:03.481Z,1003.5
2019-05-02T08:30:20.272Z,1003.3
2019-05-02T08:31:31.612Z,1003.4
2019-05-02T08:32:45.672Z,1003.4
2019-05-02T08:33:59.757Z,1003.4
2019-05-02T08:35:13.961Z,1003.5
2019-05-02T08:36:28.390Z,1003.4
2019-05-02T08:38:56.299Z,1003.5
2019-05-02T08:40:10.470Z,1003.6
2019-05-02T08:41:24.527Z,1003.6
2019-05-02T08:42:38.662Z,1003.5
2019-05-02T08:43:52.979Z,1003.4
2019-05-02T08:45:07.301Z,1003.5
2019-05-02T08:46:21.145Z,1003.5
2019-05-02T08:47:35.085Z,1003.4
2019-05-02T08:48:49.237Z,1003.5
2019-05-02T08:50:03.347Z,1003.4
2019-05-02T08:51:17.452Z,1003.5
2019-05-02T08:52:31.687Z,1003.5
2019-05-02T08:53:45.815Z,1003.5
2019-05-02T08:54:59.770Z,1003.6
2019-05-02T08:56:23.035Z,1003.4
2019-05-02T08:57:28.035Z,1003.7
2019-05-02T08:58:42.110Z,1003.4
2019-05-02T08:59:56.222Z,1003.4
2019-05-02T09:01:10.330Z,1003.6
2019-05-02T09:03:38.621Z,1003.5
2019-05-02T09:04:52.602Z,1003.4
2019-05-02T09:06:06.849Z,1003.4
2019-05-02T09:07:20.802Z,1003.5
2019-05-02T09:08:34.870Z,1003.4
2019-05-02T09:09:48.970Z,1003.4
2019-05-02T09:11:03.085Z,1003.3
2019-05-02T09:12:17.246Z,1003.3
2019-05-02T09:13:31.324Z,1003.5
2019-05-02T09:14:45.440Z,1003.4
2019-05-02T09:15:59.435Z,1003.5
2019-05-02T09:17:13.545Z,1003.4
2019-05-02T09:18:27.635Z,1003.4
2019-05-02T09:19:41.838Z,1003.4
2019-05-02T09:20:56.105Z,1003.2
2019-05-02T09:22:09.856Z,1003.3
2019-05-02T09:23:24.130Z,1003.3
2019-05-02T09:24:38.989Z,1003.3
2019-05-02T09:25:55.306Z,1003.6
2019-05-02T09:28:20.563Z,1003.5
2019-05-02T09:29:34.417Z,1003.3
2019-05-02T09:30:48.514Z,1003.6
2019-05-02T09:32:03.297Z,1003.5
2019-05-02T09:33:16.846Z,1003.5
2019-05-02T09:34:30.759Z,1003.5
2019-05-02T09:35:44.794Z,1003.3
2019-05-02T09:36:58.950Z,1003.4
2019-05-02T09:38:13.080Z,1003.2
2019-05-02T09:39:27.026Z,1003.1
2019-05-02T09:40:41.124Z,1003.2
2019-05-02T09:41:55.200Z,1003.3
2019-05-02T09:43:11.505Z,1003.3
2019-05-02T09:44:24.449Z,1003.4
2019-05-02T09:45:37.336Z,1003.3
2019-05-02T09:46:51.528Z,1003.3
2019-05-02T09:48:09.400Z,1003.2
2019-05-02T09:49:19.945Z,1003.3
2019-05-02T09:50:33.689Z,1003.2
2019-05-02T09:51:47.648Z,1003.3
2019-05-02T09:53:01.633Z,1003.1
2019-05-02T09:54:15.686Z,1003.2
2019-05-02T09:55:36.521Z,1003.2
2019-05-02T09:56:51.317Z,1003.1
2019-05-02T09:57:57.852Z,1003.2
2019-05-02T09:59:12.046Z,1003.1
2019-05-02T10:00:26.069Z,1003.2
2019-05-02T10:01:40.121Z,1003.1
2019-05-02T10:02:54.072Z,1003.3
2019-05-02T10:04:08.232Z,1003.3
2019-05-02T10:05:22.211Z,1002.9
2019-05-02T10:06:36.206Z,1002.9
2019-05-02T10:07:50.367Z,1003.1
2019-05-02T10:09:04.345Z,1003.1
2019-05-02T10:10:18.427Z,1002.8
2019-05-02T10:11:32.447Z,1002.7
2019-05-02T10:12:47.309Z,1003
2019-05-02T10:14:00.584Z,1002.8
2019-05-02T10:15:14.667Z,1002.9
2019-05-02T10:16:28.828Z,1003
2019-05-02T10:17:46.637Z,1002.6
2019-05-02T10:18:56.848Z,1002.9
2019-05-02T10:20:10.870Z,1002.9
2019-05-02T10:21:24.946Z,1002.9
2019-05-02T10:22:38.996Z,1002.8
2019-05-02T10:23:53.020Z,1002.9
2019-05-02T10:25:07.100Z,1002.5
2019-05-02T10:26:22.643Z,1002.8
2019-05-02T10:27:37.374Z,1002.7
2019-05-02T10:28:52.098Z,1002.8
2019-05-02T10:30:06.583Z,1002.7
2019-05-02T10:31:17.379Z,1002.6
2019-05-02T10:32:31.448Z,1002.6
2019-05-02T10:33:45.595Z,1002.7
2019-05-02T10:34:59.623Z,1002.4
2019-05-02T10:36:13.770Z,1002.4
2019-05-02T10:37:27.763Z,1002.7
2019-05-02T10:38:41.952Z,1002.6
2019-05-02T10:39:55.946Z,1002.6
2019-05-02T10:41:09.999Z,1002.5
2019-05-02T10:42:24.510Z,1002.6
2019-05-02T10:43:38.204Z,1002.5
2019-05-02T10:44:52.324Z,1002.6
2019-05-02T10:46:06.330Z,1002.5
2019-05-02T10:47:20.387Z,1002.3
2019-05-02T10:48:34.405Z,1002.4
2019-05-02T10:49:48.460Z,1002.5
2019-05-02T10:51:02.652Z,1002.5
2019-05-02T10:52:16.664Z,1002.5
2019-05-02T10:53:30.617Z,1002.5
2019-05-02T10:54:44.772Z,1002.5
2019-05-02T10:57:13.270Z,1002.5
2019-05-02T10:58:26.829Z,1002.3
2019-05-02T10:59:41.593Z,1002.4
2019-05-02T11:00:55.324Z,1002.4
2019-05-02T11:02:08.950Z,1002.2
2019-05-02T11:03:23.128Z,1002.3
2019-05-02T11:04:37.069Z,1002.3
2019-05-02T11:05:51.144Z,1002.3
2019-05-02T11:07:05.300Z,1002.3
2019-05-02T11:08:19.467Z,1002.2
2019-05-02T11:09:33.332Z,1002.2
2019-05-02T11:10:47.377Z,1002.2
2019-05-02T11:12:01.489Z,1002.3
2019-05-02T11:13:16.036Z,1002.4
2019-05-02T11:14:29.801Z,1002.4
2019-05-02T11:15:43.599Z,1002.1
2019-05-02T11:16:57.875Z,1002.2
2019-05-02T11:18:12.071Z,1002.3
2019-05-02T11:19:25.813Z,1002.3
2019-05-02T11:20:39.767Z,1002.3
2019-05-02T11:21:53.899Z,1002.4
2019-05-02T11:23:08.023Z,1002.3
2019-05-02T11:24:22.052Z,1002.3
2019-05-02T11:26:50.029Z,1001.9
2019-05-02T11:28:03.987Z,1002.1
2019-05-02T11:29:18.035Z,1002.1
2019-05-02T11:30:34.746Z,1001.8
2019-05-02T11:31:46.446Z,1002.1
2019-05-02T11:33:00.287Z,1001.7
2019-05-02T11:34:14.188Z,1001.7
2019-05-02T11:35:28.361Z,1001.6
2019-05-02T11:36:42.294Z,1001.7
2019-05-02T11:37:56.509Z,1002
2019-05-02T11:39:10.410Z,1001.7
2019-05-02T11:40:24.556Z,1001.7
2019-05-02T11:41:38.721Z,1002.1
2019-05-02T11:42:52.705Z,1001.7
2019-05-02T11:44:06.753Z,1001.7
2019-05-02T11:45:20.915Z,1001.6
2019-05-02T11:46:34.820Z,1001.9
2019-05-02T11:47:48.861Z,1001.6
2019-05-02T11:49:02.996Z,1001.5
2019-05-02T11:50:16.998Z,1001.6
2019-05-02T11:51:32.668Z,1001.5
2019-05-02T11:52:47.101Z,1001.5
2019-05-02T11:53:59.327Z,1001.5
2019-05-02T11:55:13.627Z,1001.9
2019-05-02T11:56:31.113Z,1001.5
2019-05-02T11:57:41.505Z,1001.5
2019-05-02T11:58:55.913Z,1001.5
2019-05-02T12:00:09.591Z,1001.5
2019-05-02T12:01:23.658Z,1001.5
2019-05-02T12:02:37.877Z,1001.8
2019-05-02T12:03:52.139Z,1001.5
2019-05-02T12:05:06.009Z,1001.5
2019-05-02T12:06:20.031Z,1001.9
2019-05-02T12:07:34.057Z,1001.8
2019-05-02T12:08:50.325Z,1001.7
2019-05-02T12:10:05.738Z,1001.7
2019-05-02T12:11:16.290Z,1001.5
2019-05-02T12:12:30.604Z,1001.5
2019-05-02T12:13:44.704Z,1001.3
2019-05-02T12:14:59.061Z,1001.4
2019-05-02T12:16:12.693Z,1001.2
2019-05-02T12:17:26.729Z,1001.3
2019-05-02T12:18:40.697Z,1001.2
2019-05-02T12:19:54.762Z,1001.3
2019-05-02T12:21:08.816Z,1001.6
2019-05-02T12:22:22.887Z,1001.4
2019-05-02T12:23:36.978Z,1001.4
2019-05-02T12:24:51.058Z,1001.3
2019-05-02T12:26:08.714Z,1001.2
2019-05-02T12:27:19.380Z,1001.2
2019-05-02T12:28:33.287Z,1001.2
2019-05-02T12:29:47.451Z,1001.3
2019-05-02T12:31:01.490Z,1001.4
2019-05-02T12:32:15.579Z,1001.5
2019-05-02T12:33:29.803Z,1001.5
2019-05-02T12:34:43.718Z,1001.5
2019-05-02T12:35:57.861Z,1001.4
2019-05-02T12:37:11.927Z,1001.2
2019-05-02T12:38:25.978Z,1001.3
2019-05-02T12:40:54.326Z,1001.3
2019-05-02T12:42:08.666Z,1001.5
2019-05-02T12:43:22.354Z,1001.3
2019-05-02T12:44:36.503Z,1001.1
2019-05-02T12:45:50.455Z,1001
2019-05-02T12:47:04.557Z,1001.2
2019-05-02T12:48:18.562Z,1001.2
2019-05-02T12:49:32.596Z,1001.1
2019-05-02T12:50:46.886Z,1001.1
2019-05-02T12:52:00.838Z,1001.2
2019-05-02T12:53:14.824Z,1001.3
2019-05-02T12:54:28.865Z,1001.2
2019-05-02T12:55:43.046Z,1000.9
2019-05-02T12:56:57.195Z,1000.8
2019-05-02T12:58:11.114Z,1001
2019-05-02T12:59:25.268Z,1000.8
2019-05-02T13:00:39.466Z,1000.8
2019-05-02T13:01:53.731Z,1000.9
2019-05-02T13:03:07.401Z,1000.8
2019-05-02T13:05:35.716Z,1000.7
2019-05-02T13:06:49.711Z,1000.7
2019-05-02T13:08:03.946Z,1000.7
2019-05-02T13:09:17.873Z,1000.7
2019-05-02T13:10:33.187Z,1000.7
2019-05-02T13:11:46.111Z,1000.6
2019-05-02T13:13:00.318Z,1000.6
2019-05-02T13:14:14.679Z,1000.6
2019-05-02T13:15:28.529Z,1000.6
2019-05-02T13:16:42.570Z,1000.6
2019-05-02T13:17:56.727Z,1000.6
2019-05-02T13:19:10.846Z,1000.6
2019-05-02T13:20:24.967Z,1000.6
2019-05-02T13:21:39.061Z,1000.6
2019-05-02T13:24:07.295Z,1000.5
2019-05-02T13:25:21.897Z,1000.6
2019-05-02T13:26:38.018Z,1000.5
2019-05-02T13:27:49.984Z,1000.5
2019-05-02T13:29:03.908Z,1000.5
2019-05-02T13:30:18.146Z,1000.5
2019-05-02T13:31:32.087Z,1000.5
2019-05-02T13:34:00.349Z,1000.5
2019-05-02T13:35:14.450Z,1000.5
2019-05-02T13:36:28.851Z,1000.5
2019-05-02T13:37:42.759Z,1000.5
2019-05-02T13:38:56.889Z,1000.6
2019-05-02T13:41:25.153Z,1000.6
2019-05-02T13:42:39.366Z,1000.7
2019-05-02T13:43:53.472Z,1000.6
2019-05-02T13:46:21.743Z,1000.8
2019-05-02T13:47:35.884Z,1000.9
2019-05-02T13:48:50.045Z,1001
2019-05-02T13:50:04.219Z,1001
2019-05-02T13:51:18.801Z,1000.9
2019-05-02T13:52:32.708Z,1001
2019-05-02T13:53:46.769Z,1001
2019-05-02T13:55:01.058Z,1001
2019-05-02T13:56:26.881Z,1001
2019-05-02T13:57:34.736Z,1001
2019-05-02T13:58:46.098Z,1001.1
2019-05-02T13:59:58.279Z,1001.1
2019-05-02T14:01:11.920Z,1001.2
2019-05-02T14:02:25.909Z,1001.2
2019-05-02T14:03:40.329Z,1001.1
2019-05-02T14:04:54.143Z,1001.1
2019-05-02T14:06:08.307Z,1001.1
2019-05-02T14:07:22.606Z,1001.1
2019-05-02T14:08:36.689Z,1001.1
2019-05-02T14:09:50.818Z,1001.1
2019-05-02T14:11:04.967Z,1001.1
2019-05-02T14:12:19.220Z,1001.1
2019-05-02T14:13:34.662Z,1001.1
2019-05-02T14:14:49.624Z,1001.2
2019-05-02T14:16:01.767Z,1001.1
2019-05-02T14:18:30.057Z,1001.1
2019-05-02T14:19:44.148Z,1001.1
2019-05-02T14:22:12.555Z,1001.1
2019-05-02T14:23:26.660Z,1001
2019-05-02T14:24:40.913Z,1001.1
2019-05-02T14:25:59.564Z,1001.1
2019-05-02T14:27:14.716Z,1001.1
2019-05-02T14:28:23.339Z,1001.1
2019-05-02T14:29:37.670Z,1001.1
2019-05-02T14:30:51.766Z,1001.1
2019-05-02T14:32:05.849Z,1001
2019-05-02T14:35:48.437Z,1001
2019-05-02T14:37:02.504Z,1001
2019-05-02T14:38:16.672Z,1001
2019-05-02T14:39:31.006Z,1001
2019-05-02T14:40:45.093Z,1001.1
2019-05-02T14:41:59.240Z,1001.1
2019-05-02T14:43:13.444Z,1001
2019-05-02T14:44:27.513Z,1001
2019-05-02T14:45:41.777Z,1001
2019-05-02T14:46:55.929Z,1001
2019-05-02T14:48:10.103Z,1001
2019-05-02T14:49:24.227Z,1001
2019-05-02T14:50:38.443Z,1001
2019-05-02T14:51:52.581Z,1001
2019-05-02T14:53:06.692Z,1001
2019-05-02T14:54:23.115Z,1001
2019-05-02T14:55:38.880Z,1001
2019-05-02T14:58:03.501Z,1001
2019-05-02T14:59:17.735Z,1001
2019-05-02T15:00:32.153Z,1001
2019-05-02T15:01:46.349Z,1001
2019-05-02T15:03:00.079Z,1000.9
2019-05-02T15:04:20.590Z,1001
2019-05-02T15:05:28.830Z,1000.9
2019-05-02T15:06:42.578Z,1000.9
2019-05-02T15:07:56.828Z,1001
2019-05-02T15:09:10.934Z,1000.9
2019-05-02T15:11:39.611Z,1000.9
2019-05-02T15:14:07.592Z,1000.8
2019-05-02T15:15:22.032Z,1000.9
2019-05-02T15:16:36.612Z,1000.8
2019-05-02T15:17:50.352Z,1000.8
2019-05-02T15:19:04.277Z,1000.8
2019-05-02T15:20:18.442Z,1000.9
2019-05-02T15:21:32.622Z,1000.7
2019-05-02T15:22:46.794Z,1000.8
2019-05-02T15:24:01.040Z,1000.9
2019-05-02T15:25:15.126Z,1000.9
2019-05-02T15:26:33.960Z,1000.9
2019-05-02T15:27:43.501Z,1000.9
2019-05-02T15:28:57.650Z,1000.9
2019-05-02T15:30:11.831Z,1000.9
2019-05-02T15:31:26.036Z,1001
2019-05-02T15:32:40.552Z,1000.9
2019-05-02T15:33:54.824Z,1000.9
2019-05-02T15:35:08.749Z,1000.9
2019-05-02T15:36:22.694Z,1000.9
2019-05-02T15:37:36.950Z,1000.9
2019-05-02T15:38:51.284Z,1000.9
2019-05-02T15:40:05.416Z,1000.9
2019-05-02T15:41:19.528Z,1000.9
2019-05-02T15:42:39.457Z,1000.9
2019-05-02T15:43:48.038Z,1000.9
2019-05-02T15:45:01.916Z,1001
2019-05-02T15:46:16.165Z,1000.9
2019-05-02T15:47:30.294Z,1000.9
2019-05-02T15:48:44.461Z,1001
2019-05-02T15:49:58.612Z,1001
2019-05-02T15:51:12.995Z,1000.9
2019-05-02T15:52:26.994Z,1001
2019-05-02T15:53:41.351Z,1001
2019-05-02T15:54:55.325Z,1000.9
2019-05-02T15:56:12.108Z,1000.9
2019-05-02T15:57:23.786Z,1000.9
2019-05-02T15:58:37.960Z,1000.9
2019-05-02T15:59:52.070Z,1000.9
2019-05-02T16:01:06.433Z,1000.9
2019-05-02T16:02:21.034Z,1000.9
2019-05-02T16:03:34.557Z,1000.9
2019-05-02T16:04:48.765Z,1000.9
2019-05-02T16:06:02.926Z,1000.9
2019-05-02T16:07:17.061Z,1000.9
2019-05-02T16:08:31.237Z,1000.9
2019-05-02T16:09:45.431Z,1000.9
2019-05-02T16:10:59.705Z,1000.9
2019-05-02T16:12:13.726Z,1000.8
2019-05-02T16:13:28.107Z,1000.8
2019-05-02T16:14:42.182Z,1000.9
2019-05-02T16:15:56.246Z,1000.9
2019-05-02T16:17:10.553Z,1000.9
2019-05-02T16:18:24.577Z,1000.9
2019-05-02T16:19:38.887Z,1000.8
2019-05-02T16:20:53.021Z,1000.9
2019-05-02T16:22:07.148Z,1000.8
2019-05-02T16:24:35.666Z,1000.8
2019-05-02T16:25:53.690Z,1000.8
2019-05-02T16:27:05.186Z,1000.8
2019-05-02T16:28:18.031Z,1000.9